Time;durP1;ratioP1;P1;durP2;ratioP2;P2;SDS_P1;SDS_P2;PMS_P1;PMS_P2;Temp;Humidity;BMP_temperature;BMP_pressure;BME280_temperature;BME280_humidity;BME280_pressure;Samples;Min_cycle;Max_cycle;Signal;HPM_P1;HPM_P2
2023/11/08 00:01:42;;;;;;;;;;;;;;;4.25;100.00;96582.78;5127125;28;20118;-69
2023/11/08 00:04:08;;;;;;;;;;;;;;;4.22;100.00;96583.94;5126774;28;20231;-68
2023/11/08 00:06:34;;;;;;;;;;;;;;;4.19;100.00;96580.88;5126409;28;19934;-69
2023/11/08 00:09:00;;;;;;;;;;;;;;;4.17;100.00;96581.03;5127305;28;19977;-72
2023/11/08 00:11:26;;;;;;;;;;;;;;;4.13;100.00;96584.97;5128030;28;19953;-78
2023/11/08 00:13:52;;;;;;;;;;;;;;;4.13;100.00;96589.34;5127348;28;20252;-73
2023/11/08 00:16:17;;;;;;;;;;;;;;;4.09;100.00;96586.28;5127360;28;20277;-73
2023/11/08 00:18:46;;;;;;;;;;;;;;;4.09;100.00;96591.47;5127261;28;19937;-74
2023/11/08 00:21:12;;;;;;;;;;;;;;;4.06;100.00;96594.44;5127194;28;20117;-73
2023/11/08 00:23:39;;;;;;;;;;;;;;;4.06;100.00;96597.81;5127092;28;19956;-73
2023/11/08 00:26:06;;;;;;;;;;;;;;;4.06;100.00;96603.03;5127170;28;20216;-74
2023/11/08 00:28:32;;;;;;;;;;;;;;;4.07;100.00;96601.22;5127112;28;19941;-74
2023/11/08 00:30:58;;;;;;;;;;;;;;;4.08;100.00;96610.63;5127035;28;19937;-74
2023/11/08 00:33:27;;;;;;;;;;;;;;;4.10;100.00;96610.47;5127544;28;20075;-74
2023/11/08 00:35:52;;;;;;;;;;;;;;;4.11;100.00;96615.47;5126894;28;19939;-74
2023/11/08 00:38:18;;;;;;;;;;;;;;;4.14;100.00;96612.56;5127704;28;19978;-74
2023/11/08 00:40:44;;;;;;;;;;;;;;;4.16;100.00;96610.59;5126797;28;19941;-75
2023/11/08 00:43:10;;;;;;;;;;;;;;;4.18;100.00;96613.00;5126605;28;19958;-74
2023/11/08 00:45:36;;;;;;;;;;;;;;;4.21;100.00;96621.25;5126718;28;19975;-69
2023/11/08 00:48:02;;;;;;;;;;;;;;;4.22;100.00;96619.44;5126704;28;19954;-77
2023/11/08 00:50:29;;;;;;;;;;;;;;;4.24;100.00;96630.47;5126781;28;19962;-73
2023/11/08 00:52:55;;;;;;;;;;;;;;;4.25;100.00;96629.50;5126593;28;19950;-73
2023/11/08 00:55:23;;;;;;;;;;;;;;;4.26;100.00;96631.09;5126530;28;19942;-73
2023/11/08 00:57:49;;;;;;;;;;;;;;;4.26;100.00;96626.75;5126450;28;19939;-71
2023/11/08 01:00:15;;;;;;;;;;;;;;;4.26;100.00;96621.56;5126493;28;19934;-71
2023/11/08 01:02:41;;;;;;;;;;;;;;;4.26;100.00;96616.34;5126919;28;20024;-72
2023/11/08 01:05:07;;;;;;;;;;;;;;;4.25;100.00;96624.31;5126803;28;20171;-78
2023/11/08 01:07:33;;;;;;;;;;;;;;;4.25;100.00;96622.50;5127136;28;19929;-74
2023/11/08 01:09:59;;;;;;;;;;;;;;;4.25;100.00;96629.50;5126237;28;19960;-74
2023/11/08 01:12:25;;;;;;;;;;;;;;;4.24;100.00;96628.69;5126222;28;20232;-74
2023/11/08 01:14:51;;;;;;;;;;;;;;;4.25;100.00;96635.50;5126115;28;19941;-73
2023/11/08 01:17:17;;;;;;;;;;;;;;;4.27;100.00;96636.13;5126890;28;19944;-74
2023/11/08 01:19:43;;;;;;;;;;;;;;;4.29;100.00;96632.56;5126061;28;19929;-75
2023/11/08 01:22:09;;;;;;;;;;;;;;;4.30;100.00;96634.16;5125995;28;20134;-72
2023/11/08 01:24:36;;;;;;;;;;;;;;;4.33;100.00;96636.44;5126910;28;19949;-75
2023/11/08 01:27:02;;;;;;;;;;;;;;;4.32;100.00;96642.59;5125935;28;19946;-74
2023/11/08 01:29:28;;;;;;;;;;;;;;;4.33;100.00;96634.63;5125836;28;19933;-74
2023/11/08 01:31:54;;;;;;;;;;;;;;;4.33;100.00;96634.63;5125835;28;19958;-74
2023/11/08 01:34:20;;;;;;;;;;;;;;;4.34;100.00;96630.25;5125816;28;19968;-74
2023/11/08 01:36:46;;;;;;;;;;;;;;;4.35;100.00;96626.69;5125729;28;20167;-74
2023/11/08 01:39:12;;;;;;;;;;;;;;;4.34;100.00;96636.25;5125734;28;19939;-74
2023/11/08 01:41:38;;;;;;;;;;;;;;;4.34;100.00;96630.25;5125740;28;19942;-78
2023/11/08 01:44:04;;;;;;;;;;;;;;;4.34;100.00;96625.06;5124773;28;19962;-68
2023/11/08 01:46:31;;;;;;;;;;;;;;;4.30;100.00;96616.78;5125572;28;19936;-67
2023/11/08 01:48:58;;;;;;;;;;;;;;;4.29;100.00;96617.00;5125381;28;19960;-67
2023/11/08 01:51:25;;;;;;;;;;;;;;;4.28;100.00;96621.34;5125726;28;20145;-67
2023/11/08 01:53:52;;;;;;;;;;;;;;;4.31;100.00;96621.03;5125945;28;20203;-67
2023/11/08 01:56:19;;;;;;;;;;;;;;;4.34;100.00;96612.06;5125429;28;19944;-67
2023/11/08 01:58:46;;;;;;;;;;;;;;;4.37;100.00;96606.53;5124839;28;19941;-71
2023/11/08 02:01:12;;;;;;;;;;;;;;;4.39;100.00;96613.19;5125330;28;19942;-74
2023/11/08 02:03:39;;;;;;;;;;;;;;;4.40;100.00;96614.78;5125227;28;20162;-74
2023/11/08 02:06:07;;;;;;;;;;;;;;;4.42;100.00;96610.22;5125168;28;19939;-74
2023/11/08 02:08:33;;;;;;;;;;;;;;;4.42;100.00;96612.81;5125172;28;19939;-74
2023/11/08 02:10:59;;;;;;;;;;;;;;;4.43;100.00;96611.84;5125320;28;19940;-74
2023/11/08 02:13:26;;;;;;;;;;;;;;;4.46;100.00;96613.28;5125106;28;20040;-74
2023/11/08 02:15:52;;;;;;;;;;;;;;;4.44;100.00;96607.44;5125044;28;19935;-74
2023/11/08 02:18:18;;;;;;;;;;;;;;;4.42;100.00;96602.44;5125579;28;19938;-77
2023/11/08 02:20:44;;;;;;;;;;;;;;;4.43;100.00;96601.47;5125788;28;19946;-79
2023/11/08 02:23:10;;;;;;;;;;;;;;;4.40;100.00;96598.41;5124920;28;19960;-79
2023/11/08 02:25:38;;;;;;;;;;;;;;;4.38;100.00;96597.75;5125477;28;20112;-79
2023/11/08 02:28:04;;;;;;;;;;;;;;;4.37;100.00;96603.94;5124855;28;20234;-78
2023/11/08 02:30:30;;;;;;;;;;;;;;;4.37;100.00;96596.16;5124898;28;19939;-78
2023/11/08 02:32:56;;;;;;;;;;;;;;;4.38;100.00;96595.97;5124813;28;19936;-79
2023/11/08 02:35:22;;;;;;;;;;;;;;;4.41;100.00;96602.59;5124787;28;19939;-79
2023/11/08 02:37:48;;;;;;;;;;;;;;;4.40;100.00;96603.59;5125618;28;19944;-75
2023/11/08 02:40:14;;;;;;;;;;;;;;;4.38;100.00;96590.78;5124750;28;19997;-73
2023/11/08 02:42:41;;;;;;;;;;;;;;;4.40;100.00;96596.59;5124917;28;19955;-73
2023/11/08 02:45:07;;;;;;;;;;;;;;;4.41;100.00;96593.03;5124630;28;19963;-72
2023/11/08 02:47:33;;;;;;;;;;;;;;;4.41;100.00;96585.25;5125480;28;19943;-73
2023/11/08 02:49:59;;;;;;;;;;;;;;;4.41;100.00;96587.84;5124638;28;19962;-73
2023/11/08 02:52:25;;;;;;;;;;;;;;;4.41;100.00;96585.25;5124630;28;19937;-72
2023/11/08 02:54:52;;;;;;;;;;;;;;;4.41;100.00;96587.84;5124604;28;20246;-72
2023/11/08 02:57:18;;;;;;;;;;;;;;;4.38;100.00;96585.56;5129347;28;19950;-73
2023/11/08 02:59:45;;;;;;;;;;;;;;;4.35;100.00;96591.13;5128833;28;19942;-72
2023/11/08 03:02:10;;;;;;;;;;;;;;;4.32;100.00;96578.50;5129242;28;19937;-72
2023/11/08 03:04:37;;;;;;;;;;;;;;;4.31;100.00;96591.66;5129282;28;19937;-72
2023/11/08 03:07:04;;;;;;;;;;;;;;;4.32;100.00;96593.25;5128653;28;19938;-72
2023/11/08 03:09:30;;;;;;;;;;;;;;;4.33;100.00;96594.91;5128632;28;20099;-72
2023/11/08 03:11:57;;;;;;;;;;;;;;;4.36;100.00;96594.53;5128590;28;20105;-73
2023/11/08 03:14:26;;;;;;;;;;;;;;;4.37;100.00;96585.78;5128548;28;19942;-68
2023/11/08 03:16:52;;;;;;;;;;;;;;;4.38;100.00;96592.56;5128645;28;20127;-74
2023/11/08 03:19:21;;;;;;;;;;;;;;;4.40;100.00;96606.19;5128446;28;19955;-74
2023/11/08 03:21:47;;;;;;;;;;;;;;;4.40;100.00;96609.59;5128397;28;19943;-75
2023/11/08 03:24:14;;;;;;;;;;;;;;;4.41;100.00;96597.41;5128304;28;19963;-74
2023/11/08 03:26:40;;;;;;;;;;;;;;;4.42;100.00;96602.44;5128315;28;19939;-74
2023/11/08 03:29:06;;;;;;;;;;;;;;;4.43;100.00;96611.84;5128251;28;20118;-74
2023/11/08 03:31:32;;;;;;;;;;;;;;;4.44;100.00;96604.84;5128261;28;19941;-72
2023/11/08 03:33:58;;;;;;;;;;;;;;;4.43;100.00;96604.06;5128678;28;19933;-73
2023/11/08 03:36:25;;;;;;;;;;;;;;;4.44;100.00;96612.66;5128149;28;19938;-68
2023/11/08 03:38:50;;;;;;;;;;;;;;;4.45;100.00;96609.88;5128112;28;20222;-68
2023/11/08 03:41:16;;;;;;;;;;;;;;;4.46;100.00;96615.88;5128563;28;19943;-68
2023/11/08 03:43:42;;;;;;;;;;;;;;;4.45;100.00;96620.28;5127860;28;19964;-68
2023/11/08 03:46:08;;;;;;;;;;;;;;;4.46;100.00;96626.25;5127156;28;19938;-68
2023/11/08 03:48:34;;;;;;;;;;;;;;;4.46;100.00;96632.25;5128457;28;19934;-69
2023/11/08 03:51:01;;;;;;;;;;;;;;;4.47;100.00;96630.47;5127878;28;20014;-77
2023/11/08 03:53:27;;;;;;;;;;;;;;;4.46;100.00;96626.25;5128639;28;19942;-71
2023/11/08 03:55:54;;;;;;;;;;;;;;;4.47;100.00;96627.84;5127745;28;19966;-71
2023/11/08 03:58:20;;;;;;;;;;;;;;;4.46;100.00;96626.25;5127712;28;19938;-71
2023/11/08 04:00:45;;;;;;;;;;;;;;;4.45;100.00;96620.28;5127662;28;19934;-72
2023/11/08 04:03:11;;;;;;;;;;;;;;;4.45;100.00;96624.63;5128057;28;20001;-71
2023/11/08 04:05:37;;;;;;;;;;;;;;;4.45;100.00;96629.81;5127568;28;19941;-71
2023/11/08 04:08:06;;;;;;;;;;;;;;;4.44;100.00;96630.81;5127277;28;20127;-73
2023/11/08 04:10:33;;;;;;;;;;;;;;;4.43;100.00;96626.59;5128072;28;19936;-77
2023/11/08 04:12:58;;;;;;;;;;;;;;;4.44;100.00;96636.00;5128228;28;19939;-72
2023/11/08 04:15:24;;;;;;;;;;;;;;;4.44;100.00;96636.00;5128206;28;19964;-72
2023/11/08 04:17:50;;;;;;;;;;;;;;;4.43;100.00;96634.38;5127320;28;19941;-73
2023/11/08 04:20:16;;;;;;;;;;;;;;;4.42;100.00;96637.97;5127285;28;19938;-72
2023/11/08 04:22:42;;;;;;;;;;;;;;;4.42;100.00;96640.56;5127148;28;19984;-72
2023/11/08 04:25:09;;;;;;;;;;;;;;;4.42;100.00;96648.38;5127213;28;19996;-72
2023/11/08 04:27:35;;;;;;;;;;;;;;;4.40;100.00;96651.13;5127700;28;19946;-71
2023/11/08 04:30:01;;;;;;;;;;;;;;;4.40;100.00;96650.31;5127121;28;19944;-72
2023/11/08 04:32:27;;;;;;;;;;;;;;;4.40;100.00;96652.91;5125986;28;19938;-72
2023/11/08 04:34:53;;;;;;;;;;;;;;;4.39;100.00;96652.13;5126950;28;19941;-72
2023/11/08 04:37:19;;;;;;;;;;;;;;;4.37;100.00;96656.69;5127009;28;19955;-72
2023/11/08 04:39:47;;;;;;;;;;;;;;;4.35;100.00;96655.25;5126901;28;20123;-72
2023/11/08 04:42:14;;;;;;;;;;;;;;;4.35;100.00;96660.44;5127176;28;19934;-72
2023/11/08 04:44:44;;;;;;;;;;;;;;;4.32;100.00;96651.19;5125882;28;19970;-73
2023/11/08 04:47:14;;;;;;;;;;;;;;;4.33;100.00;96646.81;5127287;28;19936;-78
2023/11/08 04:49:40;;;;;;;;;;;;;;;4.32;100.00;96640.78;5126543;28;20041;-71
2023/11/08 04:52:08;;;;;;;;;;;;;;;4.31;100.00;96647.00;5126635;28;19946;-71
2023/11/08 04:54:33;;;;;;;;;;;;;;;4.32;100.00;96648.59;5126632;28;19937;-71
2023/11/08 04:56:59;;;;;;;;;;;;;;;4.31;100.00;96647.00;5127332;28;19955;-71
2023/11/08 04:59:25;;;;;;;;;;;;;;;4.30;100.00;96642.75;5126812;28;19935;-71
2023/11/08 05:01:51;;;;;;;;;;;;;;;4.29;100.00;96643.75;5127288;28;20204;-72
2023/11/08 05:04:17;;;;;;;;;;;;;;;4.28;100.00;96642.13;5126368;28;20030;-77
2023/11/08 05:06:42;;;;;;;;;;;;;;;4.26;100.00;96644.09;5126990;28;19933;-71
2023/11/08 05:09:09;;;;;;;;;;;;;;;4.23;100.00;96642.66;5126886;28;19983;-71
2023/11/08 05:11:35;;;;;;;;;;;;;;;4.22;100.00;96645.41;5126846;28;20119;-71
2023/11/08 05:14:03;;;;;;;;;;;;;;;4.19;100.00;96653.56;5127087;28;19937;-71
2023/11/08 05:16:29;;;;;;;;;;;;;;;4.14;100.00;96651.47;5126205;28;20136;-71
2023/11/08 05:18:54;;;;;;;;;;;;;;;4.12;100.00;96658.63;5125081;28;19933;-71
2023/11/08 05:21:21;;;;;;;;;;;;;;;4.09;100.00;96664.16;5126617;28;19939;-71
2023/11/08 05:23:46;;;;;;;;;;;;;;;4.05;100.00;96652.50;5125992;28;19946;-75
2023/11/08 05:26:12;;;;;;;;;;;;;;;4.03;100.00;96644.06;5125409;28;20006;-74
2023/11/08 05:28:38;;;;;;;;;;;;;;;3.98;100.00;96644.59;5126483;28;19931;-74
2023/11/08 05:31:04;;;;;;;;;;;;;;;3.99;100.00;96645.38;5125898;28;20214;-74
2023/11/08 05:33:30;;;;;;;;;;;;;;;3.96;100.00;96654.31;5125843;28;19970;-74
2023/11/08 05:35:56;;;;;;;;;;;;;;;3.94;100.00;96647.69;5125375;28;19939;-74
2023/11/08 05:38:22;;;;;;;;;;;;;;;3.95;100.00;96655.31;5125738;28;19941;-74
2023/11/08 05:40:48;;;;;;;;;;;;;;;3.95;100.00;96647.53;5126535;28;20007;-73
2023/11/08 05:43:14;;;;;;;;;;;;;;;3.96;100.00;96640.56;5126100;28;19958;-74
2023/11/08 05:45:40;;;;;;;;;;;;;;;3.95;100.00;96646.72;5124533;28;19961;-74
2023/11/08 05:48:06;;;;;;;;;;;;;;;3.95;100.00;96647.53;5125561;28;19931;-74
2023/11/08 05:50:32;;;;;;;;;;;;;;;3.93;100.00;96648.69;5125374;28;19965;-74
2023/11/08 05:52:58;;;;;;;;;;;;;;;3.93;100.00;96643.50;5125663;28;19998;-74
2023/11/08 05:55:24;;;;;;;;;;;;;;;3.93;100.00;96652.09;5125507;28;19939;-74
2023/11/08 05:57:50;;;;;;;;;;;;;;;3.95;100.00;96654.50;5125350;28;19934;-75
2023/11/08 06:00:16;;;;;;;;;;;;;;;3.95;100.00;96647.53;5126185;28;20012;-68
2023/11/08 06:02:42;;;;;;;;;;;;;;;3.95;100.00;96652.72;5124187;28;19949;-78
2023/11/08 06:05:09;;;;;;;;;;;;;;;3.97;100.00;96652.53;5125305;28;20006;-78
2023/11/08 06:07:35;;;;;;;;;;;;;;;3.98;100.00;96648.97;5125220;28;19934;-78
2023/11/08 06:10:01;;;;;;;;;;;;;;;3.98;100.00;96656.75;5125171;28;19929;-77
2023/11/08 06:12:27;;;;;;;;;;;;;;;3.99;100.00;96660.97;5125668;28;19942;-78
2023/11/08 06:14:53;;;;;;;;;;;;;;;3.97;100.00;96668.94;5125141;28;19938;-79
2023/11/08 06:17:19;;;;;;;;;;;;;;;3.97;100.00;96662.91;5124587;28;20223;-74
2023/11/08 06:19:46;;;;;;;;;;;;;;;3.97;100.00;96668.94;5125405;28;19940;-71
2023/11/08 06:22:12;;;;;;;;;;;;;;;3.97;100.00;96673.28;5124996;28;20106;-71
2023/11/08 06:24:38;;;;;;;;;;;;;;;3.97;100.00;96678.47;5123974;28;19958;-71
2023/11/08 06:27:04;;;;;;;;;;;;;;;3.97;100.00;96673.28;5125762;28;19938;-71
2023/11/08 06:29:36;;;;;;;;;;;;;;;3.95;100.00;96677.84;5124944;28;20001;-71
2023/11/08 06:32:04;;;;;;;;;;;;;;;3.93;100.00;96678.03;5124526;28;19940;-71
2023/11/08 06:34:30;;;;;;;;;;;;;;;3.93;100.00;96685.03;5125439;28;19932;-71
2023/11/08 06:36:55;;;;;;;;;;;;;;;3.91;100.00;96684.38;5124801;28;20097;-74
2023/11/08 06:39:21;;;;;;;;;;;;;;;3.92;100.00;96685.97;5124792;28;19933;-77
2023/11/08 06:41:47;;;;;;;;;;;;;;;3.93;100.00;96687.63;5125307;28;20189;-78
2023/11/08 06:44:13;;;;;;;;;;;;;;;3.91;100.00;96682.59;5124583;28;20080;-77
2023/11/08 06:46:39;;;;;;;;;;;;;;;3.90;100.00;96678.34;5125248;28;19937;-77
2023/11/08 06:49:07;;;;;;;;;;;;;;;3.90;100.00;96683.56;5124437;28;19965;-77
2023/11/08 06:51:34;;;;;;;;;;;;;;;3.88;100.00;96682.91;5124300;28;21072;-77
2023/11/08 06:54:00;;;;;;;;;;;;;;;3.84;100.00;96684.22;5125179;28;20027;-77
2023/11/08 06:56:26;;;;;;;;;;;;;;;3.84;100.00;96686.81;5124105;28;19985;-77
2023/11/08 06:58:52;;;;;;;;;;;;;;;3.82;100.00;96681.00;5124548;28;19939;-79
2023/11/08 07:01:18;;;;;;;;;;;;;;;3.82;100.00;96681.81;5124619;28;19936;-78
2023/11/08 07:03:43;;;;;;;;;;;;;;;3.81;100.00;96687.97;5125271;28;19949;-78
2023/11/08 07:06:09;;;;;;;;;;;;;;;3.81;100.00;96685.38;5124569;28;19942;-78
2023/11/08 07:08:35;;;;;;;;;;;;;;;3.81;100.00;96692.34;5124486;28;19935;-77
2023/11/08 07:11:02;;;;;;;;;;;;;;;3.81;100.00;96694.94;5124465;28;19940;-78
2023/11/08 07:13:28;;;;;;;;;;;;;;;3.82;100.00;96701.75;5124463;28;19937;-72
2023/11/08 07:15:53;;;;;;;;;;;;;;;3.86;100.00;96697.84;5124356;28;19946;-73
2023/11/08 07:18:19;;;;;;;;;;;;;;;3.92;100.00;96694.56;5125279;28;20140;-72
2023/11/08 07:20:45;;;;;;;;;;;;;;;3.98;100.00;96706.88;5124921;28;20287;-72
2023/11/08 07:23:11;;;;;;;;;;;;;;;4.01;100.00;96706.53;5124215;28;19944;-72
2023/11/08 07:25:37;;;;;;;;;;;;;;;4.06;100.00;96704.22;5124824;28;19938;-72
2023/11/08 07:28:05;;;;;;;;;;;;;;;4.14;100.00;96712.97;5125135;28;20198;-72
2023/11/08 07:30:31;;;;;;;;;;;;;;;4.20;100.00;96713.09;5124831;28;19940;-72
2023/11/08 07:32:57;;;;;;;;;;;;;;;4.24;100.00;96722.16;5125075;28;19983;-72
2023/11/08 07:35:23;;;;;;;;;;;;;;;4.30;100.00;96720.66;5125066;28;19980;-72
2023/11/08 07:37:49;;;;;;;;;;;;;;;4.36;100.00;96714.75;5124195;28;19935;-72
2023/11/08 07:40:15;;;;;;;;;;;;;;;4.42;100.00;96715.88;5123075;28;19957;-73
2023/11/08 07:42:41;;;;;;;;;;;;;;;4.55;100.00;96715.31;5125337;28;19945;-73
2023/11/08 07:45:07;;;;;;;;;;;;;;;4.59;100.00;96716.56;5128050;28;20138;-73
2023/11/08 07:47:33;;;;;;;;;;;;;;;4.64;100.00;96714.25;5128709;28;19944;-73
2023/11/08 07:50:00;;;;;;;;;;;;;;;4.85;100.00;96714.44;5127837;28;19969;-78
2023/11/08 07:52:25;;;;;;;;;;;;;;;5.08;100.00;96716.16;5127839;28;20109;-79
2023/11/08 07:54:52;;;;;;;;;;;;;;;5.26;100.00;96711.47;5127719;28;19967;-79
2023/11/08 07:57:18;;;;;;;;;;;;;;;5.42;100.00;96717.50;5128249;28;19939;-78
2023/11/08 07:59:44;;;;;;;;;;;;;;;5.61;100.00;96710.97;5128516;28;19935;-78
2023/11/08 08:02:09;;;;;;;;;;;;;;;5.79;100.00;96715.78;5127587;28;19936;-78
2023/11/08 08:04:36;;;;;;;;;;;;;;;5.94;100.00;96715.75;5127450;28;19951;-78
2023/11/08 08:07:05;;;;;;;;;;;;;;;5.95;100.00;96722.63;5127519;28;19943;-78
2023/11/08 08:09:31;;;;;;;;;;;;;;;5.85;100.00;96722.88;5128019;28;19940;-75
2023/11/08 08:11:57;;;;;;;;;;;;;;;5.71;100.00;96727.06;5128150;28;19940;-71
2023/11/08 08:14:24;;;;;;;;;;;;;;;5.62;100.00;96721.16;5127383;28;19946;-71
2023/11/08 08:16:52;;;;;;;;;;;;;;;5.59;100.00;96726.75;5127327;28;19938;-72
2023/11/08 08:19:18;;;;;;;;;;;;;;;5.59;100.00;96731.13;5127295;28;19939;-72
2023/11/08 08:21:44;;;;;;;;;;;;;;;5.60;100.00;96725.72;5127108;28;20110;-71
2023/11/08 08:24:10;;;;;;;;;;;;;;;5.63;100.00;96725.41;5127151;28;19959;-72
2023/11/08 08:26:38;;;;;;;;;;;;;;;5.64;100.00;96718.38;5127155;28;19945;-77
2023/11/08 08:29:04;;;;;;;;;;;;;;;5.62;100.00;96707.34;5127087;28;20116;-75
2023/11/08 08:31:30;;;;;;;;;;;;;;;5.63;100.00;96706.38;5127041;28;19933;-75
2023/11/08 08:33:57;;;;;;;;;;;;;;;5.69;100.00;96709.06;5127810;28;19936;-75
2023/11/08 08:36:23;;;;;;;;;;;;;;;5.83;100.00;96715.22;5126923;28;20243;-75
2023/11/08 08:38:48;;;;;;;;;;;;;;;5.99;100.00;96714.28;5126905;28;19932;-75
2023/11/08 08:41:14;;;;;;;;;;;;;;;6.08;100.00;96715.75;5126877;28;20287;-74
2023/11/08 08:43:41;;;;;;;;;;;;;;;6.09;100.00;96709.59;5126675;28;19954;-69
2023/11/08 08:46:08;;;;;;;;;;;;;;;6.08;100.00;96713.16;5126798;28;19996;-78
2023/11/08 08:48:34;;;;;;;;;;;;;;;6.18;100.00;96717.28;5127079;28;19942;-72
2023/11/08 08:51:01;;;;;;;;;;;;;;;6.20;100.00;96712.72;5127022;28;20126;-72
2023/11/08 08:53:28;;;;;;;;;;;;;;;6.20;100.00;96721.31;5126411;28;19933;-72
2023/11/08 08:55:54;;;;;;;;;;;;;;;6.36;100.00;96724.69;5127112;28;19935;-72
2023/11/08 08:58:20;;;;;;;;;;;;;;;6.61;100.00;96717.31;5126575;28;19961;-71
2023/11/08 09:00:45;;;;;;;;;;;;;;;6.84;100.00;96720.53;5126543;28;19946;-72
2023/11/08 09:03:11;;;;;;;;;;;;;;;7.06;100.00;96723.94;5127253;28;19938;-73
2023/11/08 09:05:37;;;;;;;;;;;;;;;7.28;100.00;96711.66;5126906;28;19956;-78
2023/11/08 09:08:03;;;;;;;;;;;;;;;7.52;100.00;96720.06;5126289;28;19933;-77
2023/11/08 09:10:29;;;;;;;;;;;;;;;7.70;100.00;96712.53;5126276;28;19934;-78
2023/11/08 09:12:55;;;;;;;;;;;;;;;7.80;100.00;96708.78;5126218;28;19966;-78
2023/11/08 09:15:21;;;;;;;;;;;;;;;7.86;100.00;96714.00;5126218;28;20132;-78
2023/11/08 09:17:46;;;;;;;;;;;;;;;7.88;100.00;96717.25;5126228;28;19943;-78
2023/11/08 09:20:12;;;;;;;;;;;;;;;7.99;100.00;96717.69;5126121;28;19954;-78
2023/11/08 09:22:40;;;;;;;;;;;;;;;8.12;100.00;96715.91;5126118;28;20166;-75
2023/11/08 09:25:08;;;;;;;;;;;;;;;8.10;100.00;96715.31;5125873;28;19953;-79
2023/11/08 09:27:35;;;;;;;;;;;;;;;7.96;100.00;96729.34;5126416;28;20244;-80
2023/11/08 09:30:01;;;;;;;;;;;;;;;7.79;100.00;96726.25;5125526;28;19932;-79
2023/11/08 09:32:27;;;;;;;;;;;;;;;7.68;100.00;96726.78;5126698;28;19956;-80
2023/11/08 09:34:53;;;;;;;;;;;;;;;7.71;100.00;96726.41;5124742;28;19935;-80
2023/11/08 09:37:19;;;;;;;;;;;;;;;7.71;100.00;96723.78;5126315;28;19982;-79
2023/11/08 09:39:49;;;;;;;;;;;;;;;7.78;100.00;96710.75;5125770;28;19929;-72
2023/11/08 09:42:18;;;;;;;;;;;;;;;7.80;100.00;96720.00;5126291;28;19942;-77
2023/11/08 09:44:46;;;;;;;;;;;;;;;7.78;100.00;96722.00;5126000;28;19957;-77
2023/11/08 09:47:12;;;;;;;;;;;;;;;7.76;100.00;96716.16;5125556;28;19937;-77
2023/11/08 09:49:38;;;;;;;;;;;;;;;7.84;100.00;96723.84;5125423;28;20157;-76
2023/11/08 09:52:04;;;;;;;;;;;;;;;7.92;100.00;96725.50;5126043;28;19950;-77
2023/11/08 09:54:30;;;;;;;;;;;;;;;8.09;100.00;96718.94;5125510;28;20086;-77
2023/11/08 09:56:58;;;;;;;;;;;;;;;8.26;100.00;96711.56;5125400;28;19946;-77
2023/11/08 09:59:28;;;;;;;;;;;;;;;8.50;100.00;96720.72;5125992;28;19940;-76
2023/11/08 10:01:56;;;;;;;;;;;;;;;8.74;100.00;96708.09;5125330;28;19933;-75
2023/11/08 10:04:23;;;;;;;;;;;;;;;9.01;100.00;96711.53;5125188;28;19954;-75
2023/11/08 10:06:49;;;;;;;;;;;;;;;9.13;100.00;96689.00;5124672;28;19936;-75
2023/11/08 10:09:16;;;;;;;;;;;;;;;9.29;100.00;96708.69;5125697;28;19936;-75
2023/11/08 10:11:46;;;;;;;;;;;;;;;9.41;100.00;96689.72;5125712;28;20217;-75
2023/11/08 10:14:12;;;;;;;;;;;;;;;9.40;100.00;96693.38;5125062;28;19961;-75
2023/11/08 10:16:47;;;;;;;;;;;;;;;9.38;100.00;96690.16;5125124;28;19948;-76
2023/11/08 10:19:14;;;;;;;;;;;;;;;9.34;100.00;96692.38;5125772;28;19940;-76
2023/11/08 10:21:48;;;;;;;;;;;;;;;9.22;100.00;96694.81;5125707;28;19968;-75
2023/11/08 10:24:16;;;;;;;;;;;;;;;9.14;100.00;96689.78;5124842;28;19961;-76
2023/11/08 10:26:42;;;;;;;;;;;;;;;9.12;100.00;96689.97;5124927;28;19947;-74
2023/11/08 10:29:11;;;;;;;;;;;;;;;9.20;100.00;96696.81;5125607;28;19939;-75
2023/11/08 10:31:43;;;;;;;;;;;;;;;9.32;100.00;96668.22;5124907;28;19962;-74
2023/11/08 10:34:13;;;;;;;;;;;;;;;9.30;100.00;96652.72;5124891;28;19945;-77
2023/11/08 10:36:39;;;;;;;;;;;;;;;9.35;100.00;96650.28;5124890;28;19937;-76
2023/11/08 10:39:06;;;;;;;;;;;;;;;9.55;100.00;96660.72;5125304;28;19941;-75
2023/11/08 10:41:32;;;;;;;;;;;;;;;9.79;100.00;96620.97;5124756;28;19955;-75
2023/11/08 10:44:11;;;;;;;;;;;;;;;9.94;100.00;96637.22;5123997;28;19960;-76
2023/11/08 10:46:42;;;;;;;;;;;;;;;10.00;100.00;96596.28;5124457;28;19938;-76
2023/11/08 10:49:10;;;;;;;;;;;;;;;9.87;100.00;96581.41;5124536;28;19968;-77
2023/11/08 10:51:37;;;;;;;;;;;;;;;9.64;100.00;96615.97;5123501;28;20134;-76
2023/11/08 10:54:04;;;;;;;;;;;;;;;9.46;100.00;96624.50;5124601;28;19934;-74
2023/11/08 10:56:30;;;;;;;;;;;;;;;9.32;100.00;96619.31;5124670;28;19934;-77
2023/11/08 10:58:58;;;;;;;;;;;;;;;9.25;100.00;96647.28;5124581;28;19935;-76
2023/11/08 11:01:28;;;;;;;;;;;;;;;9.23;100.00;96638.84;5124535;28;19940;-77
2023/11/08 11:04:08;;;;;;;;;;;;;;;9.44;100.00;96616.84;5125319;28;19943;-77
2023/11/08 11:06:35;;;;;;;;;;;;;;;9.78;100.00;96622.75;5125355;28;19943;-77
2023/11/08 11:09:04;;;;;;;;;;;;;;;10.16;100.00;96606.25;5125216;28;20125;-77
2023/11/08 11:11:32;;;;;;;;;;;;;;;10.36;100.00;96562.38;5124447;28;19949;-75
2023/11/08 11:14:06;;;;;;;;;;;;;;;10.37;100.00;96555.31;5124170;28;19931;-75
2023/11/08 11:16:36;;;;;;;;;;;;;;;10.45;100.00;96541.94;5125725;28;19946;-72
2023/11/08 11:19:08;;;;;;;;;;;;;;;10.44;100.00;96553.47;5129342;28;19932;-73
2023/11/08 11:21:40;;;;;;;;;;;;;;;10.40;100.00;96549.66;5128734;28;19940;-73
2023/11/08 11:24:25;;;;;;;;;;;;;;;10.35;100.00;96563.41;5128302;28;19952;-73
2023/11/08 11:26:54;;;;;;;;;;;;;;;10.29;100.00;96564.25;5128295;28;19933;-73
2023/11/08 11:29:19;;;;;;;;;;;;;;;10.21;100.00;96567.13;5128923;28;19941;-72
2023/11/08 11:31:45;;;;;;;;;;;;;;;10.11;100.00;96570.19;5128365;28;19942;-73
2023/11/08 11:34:20;;;;;;;;;;;;;;;9.97;100.00;96555.56;5128383;28;19942;-75
2023/11/08 11:36:58;;;;;;;;;;;;;;;9.84;100.00;96566.13;5127036;28;19944;-75
2023/11/08 11:39:31;;;;;;;;;;;;;;;9.72;100.00;96577.28;5128133;28;19940;-75
2023/11/08 11:42:06;;;;;;;;;;;;;;;9.66;100.00;96585.13;5128634;28;19943;-75
2023/11/08 11:44:52;;;;;;;;;;;;;;;9.60;100.00;96573.69;5128083;28;20168;-75
2023/11/08 11:47:27;;;;;;;;;;;;;;;9.59;100.00;96584.38;5127461;28;19951;-75
2023/11/08 11:49:57;;;;;;;;;;;;;;;9.61;100.00;96579.72;5128000;28;19968;-76
2023/11/08 11:52:24;;;;;;;;;;;;;;;9.70;100.00;96550.50;5127901;28;19942;-86
2023/11/08 11:54:51;;;;;;;;;;;;;;;9.78;100.00;96577.44;5128357;28;19935;-86
2023/11/08 11:57:21;;;;;;;;;;;;;;;9.80;100.00;96563.13;5128044;28;19941;-85
2023/11/08 11:59:47;;;;;;;;;;;;;;;9.83;100.00;96556.69;5127481;28;19941;-85
2023/11/08 12:02:14;;;;;;;;;;;;;;;9.86;100.00;96558.84;5127642;28;19953;-85
2023/11/08 12:04:41;;;;;;;;;;;;;;;9.86;100.00;96532.66;5109425;28;19962;-86
2023/11/08 12:07:09;;;;;;;;;;;;;;;9.83;100.00;96547.00;5127600;28;19934;-76
2023/11/08 12:09:36;;;;;;;;;;;;;;;9.87;100.00;96529.03;5127522;28;19937;-75
2023/11/08 12:12:03;;;;;;;;;;;;;;;9.95;100.00;96523.53;5126389;28;20096;-76
2023/11/08 12:14:29;;;;;;;;;;;;;;;10.16;100.00;96557.28;5127409;28;19953;-75
2023/11/08 12:16:55;;;;;;;;;;;;;;;10.39;100.00;96536.75;5127389;28;19949;-76
2023/11/08 12:19:21;;;;;;;;;;;;;;;10.56;100.00;96543.06;5127338;28;19936;-76
2023/11/08 12:21:47;;;;;;;;;;;;;;;10.71;100.00;96521.78;5128126;28;19942;-75
2023/11/08 12:24:13;;;;;;;;;;;;;;;10.79;100.00;96497.06;5127913;28;19951;-76
2023/11/08 12:26:42;;;;;;;;;;;;;;;10.91;100.00;96482.19;5127760;28;19939;-74
2023/11/08 12:29:12;;;;;;;;;;;;;;;10.94;100.00;96476.50;5126542;28;19936;-70
2023/11/08 12:31:43;;;;;;;;;;;;;;;10.92;100.00;96489.06;5127403;28;19942;-69
2023/11/08 12:34:09;;;;;;;;;;;;;;;10.81;100.00;96497.66;5127103;28;19942;-70
2023/11/08 12:36:39;;;;;;;;;;;;;;;10.71;100.00;96487.69;5127064;28;19938;-70
2023/11/08 12:39:10;;;;;;;;;;;;;;;10.62;100.00;96460.91;5125883;28;19944;-70
2023/11/08 12:41:40;;;;;;;;;;;;;;;10.71;100.00;96483.22;5127492;28;19938;-69
2023/11/08 12:44:06;;;;;;;;;;;;;;;10.75;100.00;96475.69;5126706;28;19954;-75